Time;durP1;ratioP1;P1;durP2;ratioP2;P2;SDS_P1;SDS_P2;PMS_P1;PMS_P2;Temp;Humidity;BMP_temperature;BMP_pressure;BME280_temperature;BME280_humidity;BME280_pressure;Samples;Min_cycle;Max_cycle;Signal;HPM_P1;HPM_P2
2022/03/15 00:00:37;;;;;;;37.55;20.42;;;;;;;1.20;60.64;102199.47;5588130;31;34675;-62
2022/03/15 00:03:40;;;;;;;37.47;19.77;;;;;;;1.17;61.09;102195.22;5587985;31;34369;-63
2022/03/15 00:06:42;;;;;;;44.05;20.52;;;;;;;1.14;60.78;102199.72;5587921;31;34672;-63
2022/03/15 00:09:45;;;;;;;37.28;20.15;;;;;;;1.10;59.54;102192.94;5588233;31;34893;-61
2022/03/15 00:12:48;;;;;;;34.45;19.27;;;;;;;1.11;58.84;102194.62;5587849;31;34634;-62
2022/03/15 00:15:51;;;;;;;37.92;20.15;;;;;;;1.05;58.73;102193.13;5587921;31;34658;-62
2022/03/15 00:18:53;;;;;;;35.08;19.98;;;;;;;1.04;58.68;102201.88;5588108;31;34599;-63
2022/03/15 00:21:56;;;;;;;39.40;20.92;;;;;;;1.02;58.54;102190.63;5587654;31;34572;-62
2022/03/15 00:24:59;;;;;;;39.53;20.08;;;;;;;1.13;58.38;102177.97;5587575;31;34260;-61
2022/03/15 00:28:02;;;;;;;37.80;19.90;;;;;;;1.04;58.46;102183.56;5587779;31;34292;-62
2022/03/15 00:31:04;;;;;;;41.15;20.27;;;;;;;0.97;58.99;102179.50;5587524;31;34167;-62
2022/03/15 00:34:07;;;;;;;34.88;20.05;;;;;;;0.94;58.72;102195.31;5587315;31;34799;-62
2022/03/15 00:37:10;;;;;;;39.78;20.25;;;;;;;0.89;58.75;102192.03;5589448;31;34863;-62
2022/03/15 00:40:16;;;;;;;39.78;20.08;;;;;;;0.83;58.73;102192.28;5590358;31;34286;-62
2022/03/15 00:43:18;;;;;;;43.22;20.50;;;;;;;0.80;58.61;102180.19;5590635;31;34175;-62
2022/03/15 00:46:22;;;;;;;42.05;20.23;;;;;;;0.80;58.40;102174.12;5590648;31;34891;-62
2022/03/15 00:49:26;;;;;;;37.50;19.75;;;;;;;0.78;58.53;102179.41;5590452;31;34250;-63
2022/03/15 00:52:29;;;;;;;37.83;18.95;;;;;;;0.74;58.78;102179.56;5590267;31;34231;-62
2022/03/15 00:55:32;;;;;;;42.90;18.75;;;;;;;0.74;59.38;102174.34;5590246;31;34183;-63
2022/03/15 00:58:35;;;;;;;38.10;18.70;;;;;;;0.74;59.41;102172.59;5590203;31;34904;-62
2022/03/15 01:01:43;;;;;;;37.47;18.83;;;;;;;0.82;59.68;102170.50;5590334;31;34143;-62
2022/03/15 01:04:46;;;;;;;42.28;21.12;;;;;;;0.74;60.10;102163.91;5590159;31;34141;-62
2022/03/15 01:07:49;;;;;;;43.30;20.33;;;;;;;0.69;60.40;102155.41;5590137;31;34685;-62
2022/03/15 01:10:51;;;;;;;38.92;20.88;;;;;;;0.64;60.96;102152.97;5589369;31;34350;-62
2022/03/15 01:13:54;;;;;;;40.28;19.75;;;;;;;0.67;60.96;102152.03;5590191;31;35451;-63
2022/03/15 01:16:57;;;;;;;37.92;20.20;;;;;;;0.73;61.13;102151.75;5590077;31;34495;-62
2022/03/15 01:20:00;;;;;;;43.92;20.10;;;;;;;0.77;60.91;102155.97;5590125;31;34455;-62
2022/03/15 01:23:03;;;;;;;39.20;20.73;;;;;;;0.75;60.96;102158.63;5590002;31;34652;-62
2022/03/15 01:26:05;;;;;;;40.30;21.65;;;;;;;0.72;61.08;102152.69;5590039;31;34654;-62
2022/03/15 01:29:10;;;;;;;38.75;21.12;;;;;;;0.70;61.25;102152.75;5590001;31;34959;-62
2022/03/15 01:32:12;;;;;;;42.20;21.45;;;;;;;0.76;61.24;102142.06;5589933;31;34641;-62
2022/03/15 01:35:15;;;;;;;39.47;20.75;;;;;;;0.76;61.57;102138.59;5590090;31;34260;-62
2022/03/15 01:38:18;;;;;;;40.75;19.80;;;;;;;0.73;61.29;102143.91;5590249;31;34560;-62
2022/03/15 01:41:21;;;;;;;39.22;20.50;;;;;;;0.66;61.36;102143.34;5589998;31;34522;-62
2022/03/15 01:44:33;;;;;;;42.83;21.58;;;;;;;0.60;61.79;102147.94;5589785;31;34875;-62
2022/03/15 01:47:36;;;;;;;42.38;21.92;;;;;;;0.62;62.09;102151.34;5588846;31;34913;-62
2022/03/15 01:50:39;;;;;;;43.47;21.92;;;;;;;0.49;62.65;102153.59;5589849;31;34832;-62
2022/03/15 01:53:42;;;;;;;44.15;21.70;;;;;;;0.46;62.85;102161.53;5589799;31;34245;-62
2022/03/15 01:56:45;;;;;;;41.88;21.87;;;;;;;0.49;62.76;102147.50;5589729;31;34813;-62
2022/03/15 01:59:48;;;;;;;46.40;22.77;;;;;;;0.52;62.66;102150.88;5589773;31;34246;-62
2022/03/15 02:02:51;;;;;;;38.60;21.55;;;;;;;0.39;62.87;102141.78;5589709;31;35506;-62
2022/03/15 02:05:54;;;;;;;39.30;21.80;;;;;;;0.33;62.83;102142.06;5589976;31;34308;-62
2022/03/15 02:08:56;;;;;;;48.90;23.00;;;;;;;0.32;62.69;102141.19;5589494;31;34863;-62
2022/03/15 02:11:59;;;;;;;42.30;21.10;;;;;;;0.28;63.16;102134.41;5589663;31;34838;-62
2022/03/15 02:15:03;;;;;;;44.55;21.67;;;;;;;0.32;63.04;102141.19;5589628;31;34803;-62
2022/03/15 02:18:07;;;;;;;41.72;21.35;;;;;;;0.20;62.90;102141.66;5589578;31;34199;-62
2022/03/15 02:21:11;;;;;;;40.17;21.77;;;;;;;0.18;62.71;102135.66;5589442;31;34151;-62
2022/03/15 02:24:14;;;;;;;45.35;21.48;;;;;;;0.22;62.55;102136.38;5589481;31;34233;-62
2022/03/15 02:27:16;;;;;;;47.20;22.70;;;;;;;0.16;62.75;102132.25;5589340;31;34228;-61
2022/03/15 02:30:21;;;;;;;44.40;21.73;;;;;;;0.10;63.11;102129.88;5589410;31;34149;-62
2022/03/15 02:33:24;;;;;;;46.03;20.65;;;;;;;0.06;63.16;102137.88;5589005;31;34618;-62
2022/03/15 02:36:26;;;;;;;45.80;22.25;;;;;;;-0.03;63.44;102145.16;5589276;31;34935;-62
2022/03/15 02:39:29;;;;;;;42.30;22.17;;;;;;;-0.11;63.93;102147.19;5589433;31;34183;-62
2022/03/15 02:42:33;;;;;;;41.67;22.10;;;;;;;-0.17;64.22;102144.81;5589362;31;34883;-62
2022/03/15 02:45:36;;;;;;;43.03;22.98;;;;;;;-0.17;64.59;102149.16;5589317;31;34923;-61
2022/03/15 02:48:39;;;;;;;44.05;21.42;;;;;;;-0.20;64.77;102160.59;5589193;31;34936;-61
2022/03/15 02:51:42;;;;;;;47.10;22.85;;;;;;;-0.26;65.40;102155.56;5589326;31;34995;-61
2022/03/15 02:54:46;;;;;;;47.17;22.92;;;;;;;-0.21;66.26;102160.62;5589188;31;34295;-62
2022/03/15 02:57:49;;;;;;;41.30;21.52;;;;;;;-0.19;66.16;102143.16;5589047;31;34461;-62
2022/03/15 03:00:52;;;;;;;45.08;21.80;;;;;;;-0.31;66.76;102148.81;5589259;31;34243;-61
2022/03/15 03:03:54;;;;;;;48.00;22.62;;;;;;;-0.35;68.13;102144.63;5589058;31;34838;-63
2022/03/15 03:06:58;;;;;;;44.78;22.17;;;;;;;-0.39;68.83;102140.44;5589039;31;34844;-62
2022/03/15 03:10:01;;;;;;;46.80;22.33;;;;;;;-0.41;69.64;102148.31;5589006;31;34273;-62
2022/03/15 03:13:05;;;;;;;45.90;22.87;;;;;;;-0.40;69.36;102139.59;5588908;31;34940;-62
2022/03/15 03:16:08;;;;;;;42.40;22.40;;;;;;;-0.46;69.35;102138.03;5589202;31;34185;-62
2022/03/15 03:19:11;;;;;;;43.00;23.33;;;;;;;-0.48;69.77;102147.66;5588845;31;34950;-61
2022/03/15 03:22:13;;;;;;;45.65;21.77;;;;;;;-0.49;69.94;102145.13;5588754;31;34843;-63
2022/03/15 03:25:17;;;;;;;50.20;22.62;;;;;;;-0.51;70.31;102152.13;5589064;31;34245;-63
2022/03/15 03:28:19;;;;;;;41.25;22.42;;;;;;;-0.51;70.72;102145.16;5588581;31;34574;-62
2022/03/15 03:31:22;;;;;;;46.85;24.05;;;;;;;-0.51;71.06;102147.78;5588616;31;35463;-61
2022/03/15 03:34:25;;;;;;;44.38;22.70;;;;;;;-0.55;71.54;102164.44;5588751;31;34296;-62
2022/03/15 03:37:27;;;;;;;48.53;23.27;;;;;;;-0.52;72.05;102166.06;5588868;31;34307;-62
2022/03/15 03:40:30;;;;;;;50.12;22.62;;;;;;;-0.56;73.19;102164.47;5588456;31;34233;-62
2022/03/15 03:43:34;;;;;;;48.80;22.65;;;;;;;-0.31;72.69;102165.31;5588369;31;34254;-61
2022/03/15 03:46:37;;;;;;;43.95;22.62;;;;;;;-0.26;71.89;102184.28;5588351;31;34355;-62
2022/03/15 03:49:40;;;;;;;48.70;23.27;;;;;;;-0.37;72.76;102183.78;5588333;31;34608;-61
2022/03/15 03:52:42;;;;;;;42.13;22.30;;;;;;;-0.24;72.78;102182.44;5588377;31;34121;-61
2022/03/15 03:55:45;;;;;;;46.25;22.87;;;;;;;-0.27;72.43;102179.94;5588157;31;34101;-62
2022/03/15 03:58:47;;;;;;;42.47;22.27;;;;;;;-0.34;71.65;102181.09;5588066;31;35489;-62
2022/03/15 04:01:50;;;;;;;44.00;21.92;;;;;;;-0.55;71.72;102168.78;5587986;31;34893;-62
2022/03/15 04:04:54;;;;;;;47.30;22.85;;;;;;;-0.69;71.75;102164.06;5588106;31;34788;-61
2022/03/15 04:07:59;;;;;;;44.70;22.20;;;;;;;-0.79;71.84;102172.25;5588119;31;34289;-61
2022/03/15 04:11:10;;;;;;;43.87;22.13;;;;;;;-0.84;71.65;102171.53;5589311;31;34595;-62
2022/03/15 04:14:12;;;;;;;46.88;23.23;;;;;;;-0.86;71.56;102163.78;5590719;31;34838;-61
2022/03/15 04:17:15;;;;;;;37.88;21.55;;;;;;;-0.89;71.68;102158.66;5590824;31;34140;-62
2022/03/15 04:20:18;;;;;;;39.47;21.30;;;;;;;-0.91;72.11;102166.53;5590874;31;34347;-62
2022/03/15 04:23:21;;;;;;;40.15;21.75;;;;;;;-0.95;72.55;102164.94;5590584;31;34838;-62
2022/03/15 04:26:25;;;;;;;50.15;23.40;;;;;;;-0.98;72.48;102167.66;5590430;31;34932;-61
2022/03/15 04:29:28;;;;;;;43.70;22.55;;;;;;;-1.04;72.50;102167.00;5590506;31;34603;-61
2022/03/15 04:32:32;;;;;;;44.38;23.30;;;;;;;-1.11;72.90;102176.75;5590597;31;34217;-61
2022/03/15 04:35:35;;;;;;;41.10;22.17;;;;;;;-1.13;73.28;102175.97;5590397;31;34908;-61
2022/03/15 04:38:37;;;;;;;42.72;23.27;;;;;;;-1.19;74.19;102186.56;5590393;31;34910;-61
2022/03/15 04:41:40;;;;;;;42.80;22.08;;;;;;;-1.20;74.44;102187.47;5590371;31;34166;-62
2022/03/15 04:44:43;;;;;;;40.28;21.67;;;;;;;-1.25;74.84;102188.50;5590537;31;34290;-61
2022/03/15 04:47:46;;;;;;;43.78;22.67;;;;;;;-1.25;75.24;102197.16;5590238;31;34927;-62
2022/03/15 04:50:48;;;;;;;44.83;22.40;;;;;;;-1.00;77.11;102198.09;5590349;31;34954;-62
2022/03/15 04:53:54;;;;;;;45.63;22.67;;;;;;;-0.95;75.58;102195.34;5590395;31;34360;-62
2022/03/15 04:56:57;;;;;;;40.75;22.85;;;;;;;-1.09;76.71;102201.00;5590314;31;34306;-61
2022/03/15 05:00:01;;;;;;;46.08;23.73;;;;;;;-1.02;77.10;102202.53;5590265;31;34225;-62
2022/03/15 05:03:07;;;;;;;44.83;24.20;;;;;;;-0.98;79.34;102204.13;5590339;31;34578;-62
2022/03/15 05:06:10;;;;;;;46.17;24.58;;;;;;;-1.05;80.14;102202.59;5590246;31;34568;-62
2022/03/15 05:09:13;;;;;;;45.95;23.70;;;;;;;-1.10;81.39;102214.06;5590033;31;34275;-62
2022/03/15 05:12:18;;;;;;;49.35;24.05;;;;;;;-1.09;82.35;102208.81;5590117;31;34334;-62
2022/03/15 05:15:20;;;;;;;49.05;23.40;;;;;;;-0.84;82.26;102216.69;5590240;31;34215;-61
2022/03/15 05:18:23;;;;;;;43.83;23.42;;;;;;;-1.03;82.78;102205.16;5590075;31;34855;-62
2022/03/15 05:21:26;;;;;;;42.53;23.38;;;;;;;-1.08;84.27;102220.09;5589743;31;34806;-62
2022/03/15 05:24:29;;;;;;;43.80;23.52;;;;;;;-0.96;84.60;102214.47;5590507;31;34663;-62
2022/03/15 05:27:33;;;;;;;54.00;23.33;;;;;;;-0.88;84.59;102212.50;5590262;31;34603;-62
2022/03/15 05:30:37;;;;;;;46.05;22.58;;;;;;;-0.71;83.24;102211.91;5589908;31;34118;-62
2022/03/15 05:33:39;;;;;;;38.60;22.27;;;;;;;-0.64;82.28;102210.81;5589891;31;34832;-62
2022/03/15 05:36:42;;;;;;;46.63;24.73;;;;;;;-0.50;80.60;102205.97;5589968;31;34239;-62
2022/03/15 05:39:45;;;;;;;43.10;23.10;;;;;;;-0.38;79.39;102207.28;5589893;31;34885;-62
2022/03/15 05:42:48;;;;;;;47.30;22.87;;;;;;;-0.33;79.29;102206.22;5589808;31;34267;-61
2022/03/15 05:45:50;;;;;;;43.38;23.12;;;;;;;-0.15;78.39;102205.59;5589805;31;34309;-62
2022/03/15 05:48:53;;;;;;;54.22;25.05;;;;;;;-0.10;77.95;102198.44;5589881;31;34088;-62
2022/03/15 05:51:56;;;;;;;42.97;23.50;;;;;;;0.06;76.55;102203.09;5589772;31;34159;-62
2022/03/15 05:54:59;;;;;;;45.97;23.90;;;;;;;0.23;75.25;102195.50;5590085;31;34175;-62
2022/03/15 05:58:02;;;;;;;51.97;24.65;;;;;;;0.32;74.56;102195.16;5589831;31;34299;-62
2022/03/15 06:01:05;;;;;;;50.55;25.85;;;;;;;0.50;73.08;102191.00;5589753;31;34124;-63
2022/03/15 06:04:10;;;;;;;44.80;23.70;;;;;;;0.39;73.92;102194.88;5588934;31;34866;-62
2022/03/15 06:07:12;;;;;;;48.28;24.08;;;;;;;0.51;73.25;102195.31;5589674;31;34461;-62
2022/03/15 06:10:21;;;;;;;52.25;24.90;;;;;;;0.76;71.86;102194.28;5589511;31;34952;-62
2022/03/15 06:13:24;;;;;;;41.97;21.70;;;;;;;0.83;71.36;102193.13;5589614;31;34671;-62
2022/03/15 06:16:27;;;;;;;38.25;20.83;;;;;;;1.01;70.66;102201.16;5588855;31;34248;-62
2022/03/15 06:19:30;;;;;;;47.03;22.55;;;;;;;1.20;69.61;102204.72;5589529;31;34258;-62
2022/03/15 06:22:33;;;;;;;46.10;23.92;;;;;;;1.35;68.81;102200.63;5589542;31;34142;-62
2022/03/15 06:25:36;;;;;;;46.25;21.45;;;;;;;1.49;67.61;102204.34;5589544;31;34955;-62
2022/03/15 06:28:39;;;;;;;48.90;22.27;;;;;;;1.65;66.19;102199.28;5589277;31;34225;-62
2022/03/15 06:31:41;;;;;;;43.75;21.77;;;;;;;1.85;65.68;102203.66;5589610;31;34224;-62
2022/03/15 06:34:44;;;;;;;43.25;21.60;;;;;;;2.19;63.81;102196.84;5588455;31;34906;-62
2022/03/15 06:37:50;;;;;;;39.15;21.90;;;;;;;2.35;63.34;102201.38;5589373;31;34150;-62
2022/03/15 06:40:53;;;;;;;41.03;20.50;;;;;;;2.58;62.72;102196.75;5589416;31;34195;-62
2022/03/15 06:43:56;;;;;;;41.75;20.98;;;;;;;2.54;59.87;102197.84;5589355;31;34741;-62
2022/03/15 06:46:59;;;;;;;38.65;20.30;;;;;;;3.13;58.28;102195.87;5589263;31;34288;-62
2022/03/15 06:50:07;;;;;;;41.08;21.02;;;;;;;3.54;57.63;102199.03;5589189;31;35023;-62
2022/03/15 06:53:09;;;;;;;48.95;21.08;;;;;;;3.93;57.03;102213.56;5589207;31;34342;-63
2022/03/15 06:56:12;;;;;;;36.65;20.45;;;;;;;4.88;52.44;102198.75;5589280;31;34169;-62
2022/03/15 06:59:17;;;;;;;44.85;20.62;;;;;;;5.37;51.50;102194.12;5589171;31;35521;-62
2022/03/15 07:02:19;;;;;;;39.97;20.23;;;;;;;6.49;48.32;102186.34;5589000;31;35434;-62
2022/03/15 07:05:23;;;;;;;36.38;19.50;;;;;;;7.41;45.87;102177.59;5589115;31;34366;-62
2022/03/15 07:08:25;;;;;;;38.90;21.12;;;;;;;7.91;44.45;102178.56;5589173;31;34128;-63
2022/03/15 07:11:28;;;;;;;39.75;19.85;;;;;;;8.24;41.46;102172.69;5589293;31;34305;-63
2022/03/15 07:14:31;;;;;;;37.22;20.67;;;;;;;6.65;44.05;102167.75;5589110;31;34331;-62
2022/03/15 07:17:34;;;;;;;35.03;19.40;;;;;;;7.57;41.62;102171.28;5589318;31;35479;-63
2022/03/15 07:20:37;;;;;;;32.75;19.10;;;;;;;7.82;41.47;102166.84;5589169;31;35340;-62
2022/03/15 07:23:40;;;;;;;32.78;18.37;;;;;;;7.46;41.13;102168.50;5589088;31;34360;-63
2022/03/15 07:26:42;;;;;;;41.03;20.37;;;;;;;7.54;40.20;102168.84;5588699;31;34143;-63
2022/03/15 07:29:45;;;;;;;36.72;20.23;;;;;;;8.16;38.64;102167.12;5588523;31;34786;-63
2022/03/15 07:32:48;;;;;;;38.08;20.17;;;;;;;9.57;36.49;102162.78;5588561;31;34979;-63
2022/03/15 07:35:51;;;;;;;37.47;20.25;;;;;;;10.46;35.11;102159.28;5588637;31;34223;-64
2022/03/15 07:38:54;;;;;;;34.97;20.65;;;;;;;11.56;32.90;102174.91;5588813;31;34295;-63
2022/03/15 07:41:57;;;;;;;34.08;19.95;;;;;;;11.11;32.69;102163.66;5588376;31;35036;-62
2022/03/15 07:45:00;;;;;;;32.60;19.37;;;;;;;12.45;30.17;102177.69;5589095;31;34706;-63
2022/03/15 07:48:06;;;;;;;35.28;20.25;;;;;;;9.93;32.92;102176.78;5590756;31;34187;-63
2022/03/15 07:51:09;;;;;;;34.00;19.17;;;;;;;11.75;30.73;102177.72;5590810;31;34785;-63
2022/03/15 07:54:12;;;;;;;32.90;19.45;;;;;;;13.40;27.92;102173.47;5590997;31;34526;-62
2022/03/15 07:57:17;;;;;;;34.92;19.17;;;;;;;14.77;26.75;102169.09;5590799;31;34300;-62
2022/03/15 08:00:20;;;;;;;32.47;19.77;;;;;;;12.39;28.70;102178.25;5590845;31;34286;-63
2022/03/15 08:03:26;;;;;;;34.92;19.60;;;;;;;13.72;27.54;102170.44;5590917;31;34614;-63
2022/03/15 08:06:30;;;;;;;30.00;18.85;;;;;;;14.81;25.58;102166.16;5590665;31;34146;-63
2022/03/15 08:09:34;;;;;;;36.97;19.23;;;;;;;13.47;28.01;102171.91;5590625;31;35233;-63
2022/03/15 08:12:38;;;;;;;33.80;20.65;;;;;;;15.97;25.04;102174.75;5590593;31;34699;-63
2022/03/15 08:15:41;;;;;;;30.23;19.67;;;;;;;16.30;24.24;102170.38;5590588;31;34230;-63
2022/03/15 08:18:44;;;;;;;30.62;19.45;;;;;;;14.20;25.64;102172.09;5590938;31;34264;-63
2022/03/15 08:21:47;;;;;;;34.05;20.33;;;;;;;15.71;24.89;102174.78;5590689;31;34692;-63
2022/03/15 08:24:49;;;;;;;29.52;20.23;;;;;;;15.33;24.97;102173.28;5590500;31;34147;-63
2022/03/15 08:27:53;;;;;;;36.30;20.55;;;;;;;14.51;27.13;102170.84;5590794;31;34239;-64
2022/03/15 08:30:56;;;;;;;31.55;20.00;;;;;;;15.39;24.48;102167.34;5590446;31;34947;-63
2022/03/15 08:33:59;;;;;;;36.38;20.33;;;;;;;15.65;24.40;102162.00;5590104;31;34323;-64
2022/03/15 08:37:01;;;;;;;32.83;19.42;;;;;;;17.63;22.22;102155.81;5589477;31;34867;-64
2022/03/15 08:40:06;;;;;;;34.75;21.10;;;;;;;19.15;20.64;102156.28;5590210;31;34776;-64
2022/03/15 08:43:09;;;;;;;30.23;19.98;;;;;;;17.10;23.04;102152.81;5590329;31;34311;-65
2022/03/15 08:46:12;;;;;;;33.97;20.62;;;;;;;19.21;20.57;102144.78;5590237;31;34251;-63
2022/03/15 08:49:17;;;;;;;36.22;19.52;;;;;;;18.10;22.03;102153.19;5590003;31;34154;-63
2022/03/15 08:52:20;;;;;;;30.55;18.23;;;;;;;18.74;20.95;102145.81;5589661;31;34936;-64
2022/03/15 08:55:23;;;;;;;25.77;17.25;;;;;;;18.82;20.95;102136.88;5590164;31;34224;-64
2022/03/15 08:58:26;;;;;;;28.65;17.92;;;;;;;17.48;21.00;102135.19;5588800;31;34674;-64
2022/03/15 09:01:28;;;;;;;31.50;17.52;;;;;;;14.54;24.11;102137.63;5590226;31;34905;-64
2022/03/15 09:04:39;;;;;;;28.45;17.02;;;;;;;13.11;26.57;102134.47;5590119;31;34136;-63
2022/03/15 09:07:42;;;;;;;29.92;17.05;;;;;;;12.71;27.31;102130.12;5590085;31;34974;-64
2022/03/15 09:10:47;;;;;;;29.75;16.05;;;;;;;12.48;26.93;102126.88;5589964;31;34366;-64
2022/03/15 09:13:49;;;;;;;29.33;17.27;;;;;;;12.12;28.21;102124.81;5589995;31;34361;-64
2022/03/15 09:16:54;;;;;;;27.73;15.95;;;;;;;11.80;28.18;102109.03;5589925;31;34156;-62
2022/03/15 09:19:57;;;;;;;27.40;16.30;;;;;;;11.76;28.88;102100.44;5589654;31;34974;-63
2022/03/15 09:23:00;;;;;;;30.30;16.40;;;;;;;11.37;28.95;102100.38;5589786;31;34725;-63
2022/03/15 09:26:03;;;;;;;26.25;15.13;;;;;;;11.41;28.90;102091.16;5589537;31;35468;-64
2022/03/15 09:29:06;;;;;;;27.00;14.57;;;;;;;11.29;29.11;102082.41;5589589;31;34136;-63
2022/03/15 09:32:10;;;;;;;27.60;14.77;;;;;;;11.56;28.42;102087.19;5590172;31;34301;-62
2022/03/15 09:35:13;;;;;;;30.70;14.07;;;;;;;11.75;28.40;102084.66;5589913;31;34219;-62
2022/03/15 09:38:23;;;;;;;20.90;12.83;;;;;;;11.71;28.42;102072.56;5588871;31;33703;-63
2022/03/15 09:41:27;;;;;;;20.45;12.52;;;;;;;12.05;28.57;102063.31;5589340;31;34294;-63
2022/03/15 09:44:35;;;;;;;19.17;10.88;;;;;;;12.28;28.09;102069.25;5589506;31;34959;-63
2022/03/15 09:47:40;;;;;;;20.08;11.50;;;;;;;12.50;26.98;102065.47;5589802;31;34348;-63
2022/03/15 09:50:47;;;;;;;22.67;12.00;;;;;;;12.46;27.46;102070.25;5589714;31;34220;-63
2022/03/15 09:53:50;;;;;;;20.12;12.23;;;;;;;12.72;27.12;102069.72;5589603;31;34147;-63
2022/03/15 09:56:55;;;;;;;23.65;12.57;;;;;;;12.20;27.20;102063.75;5588889;31;34306;-63
2022/03/15 10:00:00;;;;;;;23.90;13.07;;;;;;;12.46;27.87;102056.94;5589803;31;34265;-63
2022/03/15 10:03:03;;;;;;;22.62;11.73;;;;;;;12.68;27.10;102047.00;5589617;31;34934;-63
2022/03/15 10:06:06;;;;;;;20.12;11.27;;;;;;;12.97;27.85;102047.81;5589512;31;34795;-63
2022/03/15 10:09:09;;;;;;;18.37;10.73;;;;;;;12.59;27.12;102046.84;5588488;31;34940;-64
2022/03/15 10:12:12;;;;;;;23.48;10.90;;;;;;;12.63;27.29;102036.78;5589704;31;34337;-63
2022/03/15 10:15:19;;;;;;;20.20;11.00;;;;;;;13.15;26.80;102023.97;5589873;31;34276;-64
2022/03/15 10:18:22;;;;;;;19.30;10.40;;;;;;;13.44;26.28;102024.72;5588815;31;34241;-63
2022/03/15 10:21:39;;;;;;;20.10;10.93;;;;;;;13.67;26.81;102025.16;5589368;31;34908;-63
2022/03/15 10:24:46;;;;;;;17.37;9.10;;;;;;;13.21;27.02;102018.91;5589206;31;34589;-63
2022/03/15 10:29:17;;;;;;;14.85;8.98;;;;;;;13.60;26.52;102014.28;5595605;31;886847;-63
2022/03/15 10:32:21;;;;;;;16.45;8.55;;;;;;;13.57;25.99;102009.22;5604279;31;33556;-64
2022/03/15 10:35:37;;;;;;;15.48;8.07;;;;;;;13.67;25.95;102003.84;5603520;31;34490;-64
2022/03/15 10:38:51;;;;;;;13.95;7.93;;;;;;;14.01;25.35;102007.56;5603515;31;34581;-64
2022/03/15 10:42:04;;;;;;;18.33;8.55;;;;;;;13.88;25.62;102004.44;5603651;31;34426;-64
2022/03/15 10:45:22;;;;;;;18.27;8.82;;;;;;;14.11;25.45;102003.00;5603633;31;35025;-65
2022/03/15 10:48:32;;;;;;;16.60;9.00;;;;;;;14.40;25.52;101996.63;5604071;31;33826;-64
2022/03/15 10:51:36;;;;;;;;;;;;;;;14.79;25.04;101985.44;5604290;31;33896;-63
2022/03/15 10:54:39;;;;;;;15.80;8.93;;;;;;;15.02;24.52;101982.25;5604043;31;34141;-63
2022/03/15 10:57:50;;;;;;;16.40;9.18;;;;;;;14.68;25.19;101972.34;5603609;31;33915;-63
2022/03/15 11:00:54;;;;;;;14.07;8.32;;;;;;;14.67;25.10;101964.47;5604188;31;33970;-63
2022/03/15 11:04:01;;;;;;;16.23;8.80;;;;;;;14.14;25.59;101941.31;5604220;31;34069;-64
2022/03/15 11:07:03;;;;;;;18.83;8.70;;;;;;;15.08;24.54;101938.84;5603792;31;33970;-63
2022/03/15 11:10:13;;;;;;;13.20;7.87;;;;;;;15.88;23.62;101934.81;5604083;31;33917;-64
2022/03/15 11:13:17;;;;;;;15.85;8.80;;;;;;;17.26;21.98;101923.00;5589796;31;33936;-64
2022/03/15 11:16:20;;;;;;;14.50;8.60;;;;;;;17.93;21.61;101917.94;5589872;31;33826;-63
2022/03/15 11:19:28;;;;;;;12.50;8.13;;;;;;;17.26;21.97;101914.09;5603957;31;35148;-64
2022/03/15 11:22:35;;;;;;;14.75;8.30;;;;;;;18.79;20.46;101901.41;5603853;31;33913;-64
2022/03/15 11:26:04;;;;;;;14.40;7.82;;;;;;;18.67;20.83;101894.84;5603525;31;33870;-63
2022/03/15 11:29:08;;;;;;;14.93;8.25;;;;;;;19.55;19.31;101888.59;5603505;31;35124;-64
2022/03/15 11:32:12;;;;;;;12.00;7.28;;;;;;;19.24;19.62;101886.94;5603835;31;33895;-65
2022/03/15 11:35:19;;;;;;;13.23;7.00;;;;;;;21.59;17.43;101880.16;5603885;31;34085;-64
2022/03/15 11:38:23;;;;;;;10.63;6.78;;;;;;;22.35;16.43;101865.28;5587045;31;33742;-64
2022/03/15 11:41:29;;;;;;;10.43;7.03;;;;;;;21.99;17.09;101857.56;5590417;31;33967;-64
2022/03/15 11:44:50;;;;;;;11.70;7.18;;;;;;;21.66;17.39;101857.50;5590123;31;33804;-64
2022/03/15 11:47:59;;;;;;;11.85;6.90;;;;;;;21.65;17.54;101842.31;5590277;31;35309;-64
2022/03/15 11:51:15;;;;;;;14.30;6.95;;;;;;;21.76;17.16;101840.06;5590223;31;33769;-64
2022/03/15 11:54:42;;;;;;;11.48;6.47;;;;;;;24.06;15.41;101823.91;5590295;31;33816;-64
2022/03/15 11:58:01;;;;;;;10.75;6.72;;;;;;;20.49;17.81;101817.31;5590194;31;33711;-64
2022/03/15 12:01:12;;;;;;;12.07;7.07;;;;;;;22.02;16.52;101819.34;5590219;31;33863;-64
2022/03/15 12:04:16;;;;;;;10.65;7.05;;;;;;;23.07;16.03;101817.47;5590273;31;33759;-65
2022/03/15 12:07:46;;;;;;;12.27;7.05;;;;;;;25.42;14.06;101800.06;5590386;31;34713;-66
2022/03/15 12:11:05;;;;;;;13.95;6.75;;;;;;;24.00;14.87;101794.16;5589993;31;34148;-65
2022/03/15 12:14:17;;;;;;;10.70;6.50;;;;;;;20.25;17.65;101787.09;5590450;31;33919;-65
2022/03/15 12:17:20;;;;;;;15.15;6.60;;;;;;;22.78;15.93;101783.66;5590055;31;34720;-66
2022/03/15 12:20:25;;;;;;;10.20;6.20;;;;;;;26.87;13.49;101777.69;5576334;31;34508;-67
2022/03/15 12:23:37;;;;;;;11.57;6.85;;;;;;;26.62;12.92;101767.09;5590422;31;35111;-66
2022/03/15 12:26:58;;;;;;;9.63;6.75;;;;;;;21.87;15.96;101761.09;5590270;31;34443;-67
2022/03/15 12:30:07;;;;;;;11.57;6.90;;;;;;;24.04;15.23;101754.72;5565679;31;35068;-68
2022/03/15 12:33:25;;;;;;;10.88;6.78;;;;;;;24.82;14.22;101750.31;5590102;31;34685;-66
2022/03/15 12:36:40;;;;;;;9.25;6.47;;;;;;;24.52;14.52;101727.72;5589832;31;33965;-66
2022/03/15 12:39:54;;;;;;;14.27;7.05;;;;;;;25.64;13.68;101726.19;5589931;31;34656;-66
2022/03/15 12:43:01;;;;;;;15.98;7.12;;;;;;;22.11;16.37;101746.97;5589838;31;34499;-67
2022/03/15 12:46:05;;;;;;;10.35;6.45;;;;;;;22.77;15.91;101750.34;5590342;31;33798;-65
2022/03/15 12:49:17;;;;;;;10.60;7.07;;;;;;;22.27;16.66;101733.00;5590309;31;33979;-65
2022/03/15 12:52:20;;;;;;;13.98;7.12;;;;;;;19.30;18.78;101718.53;5589072;31;34499;-66
2022/03/15 12:55:30;;;;;;;14.60;7.45;;;;;;;17.38;20.88;101724.91;5576100;31;34427;-66
2022/03/15 12:58:34;;;;;;;14.23;6.93;;;;;;;17.10;21.62;101718.41;5590207;31;33859;-65
2022/03/15 13:01:38;;;;;;;12.37;7.45;;;;;;;18.63;20.55;101706.22;5576016;31;34459;-64
2022/03/15 13:04:42;;;;;;;11.02;6.78;;;;;;;17.05;21.83;101700.16;5589716;31;34556;-64
2022/03/15 13:07:51;;;;;;;8.90;6.50;;;;;;;18.14;21.03;101707.78;5589900;31;33887;-64
2022/03/15 13:10:56;;;;;;;10.70;6.65;;;;;;;18.05;20.94;101693.63;5589513;31;34290;-64
2022/03/15 13:13:59;;;;;;;11.23;6.68;;;;;;;17.34;22.02;101699.47;5589563;31;33761;-64
2022/03/15 13:17:03;;;;;;;16.33;7.15;;;;;;;17.92;21.52;101696.09;5576160;31;34600;-64
2022/03/15 13:20:10;;;;;;;15.30;7.07;;;;;;;17.43;22.12;101690.31;5575367;31;33251;-64
2022/03/15 13:23:17;;;;;;;15.07;6.68;;;;;;;16.97;22.74;101686.84;5589643;31;34511;-65
2022/03/15 13:26:24;;;;;;;13.65;7.18;;;;;;;16.26;23.91;101681.66;5588884;31;33991;-65
2022/03/15 13:29:28;;;;;;;12.07;6.85;;;;;;;16.26;24.07;101673.63;5589581;31;33840;-64
2022/03/15 13:32:31;;;;;;;16.77;7.32;;;;;;;15.83;24.48;101666.88;5589777;31;33938;-63
2022/03/15 13:35:35;;;;;;;13.82;7.35;;;;;;;15.72;24.63;101668.06;5589252;31;33973;-63
2022/03/15 13:38:47;;;;;;;12.35;6.95;;;;;;;15.49;25.09;101675.91;5589525;31;33912;-64
2022/03/15 13:41:53;;;;;;;12.75;6.47;;;;;;;14.77;26.35;101668.66;5589251;31;33962;-64
2022/03/15 13:44:58;;;;;;;11.48;6.55;;;;;;;14.72;26.31;101661.16;5589280;31;34541;-63
2022/03/15 13:48:01;;;;;;;13.60;7.07;;;;;;;14.69;26.41;101663.31;5589665;31;33401;-63
2022/03/15 13:51:11;;;;;;;15.70;7.20;;;;;;;14.75;26.46;101652.81;5589767;31;33876;-64
2022/03/15 13:54:16;;;;;;;14.45;6.85;;;;;;;14.73;26.28;101651.31;5589402;31;34606;-63
2022/03/15 13:57:43;;;;;;;14.05;6.78;;;;;;;14.90;26.64;101639.66;5589433;31;33927;-63
2022/03/15 14:00:46;;;;;;;10.40;6.80;;;;;;;14.64;26.47;101641.59;5589516;31;34597;-63
2022/03/15 14:04:02;;;;;;;10.40;7.00;;;;;;;14.53;26.55;101644.56;5588835;31;33946;-64
2022/03/15 14:07:09;;;;;;;11.68;6.72;;;;;;;14.60;26.43;101626.91;5589195;31;35308;-64